sensor_id;sensor_type;location;lat;lon;timestamp;P1;durP1;ratioP1;P2;durP2;ratioP2
62401;SDS011;48440;51.224;22.506;2023-07-20T00:01:43;9.00;;;5.60;;
62401;SDS011;48440;51.224;22.506;2023-07-20T00:04:09;7.93;;;5.65;;
62401;SDS011;48440;51.224;22.506;2023-07-20T00:06:35;10.80;;;5.80;;
62401;SDS011;48440;51.224;22.506;2023-07-20T00:09:00;12.02;;;6.15;;
62401;SDS011;48440;51.224;22.506;2023-07-20T00:11:26;8.32;;;5.72;;
62401;SDS011;48440;51.224;22.506;2023-07-20T00:13:52;9.65;;;6.03;;
62401;SDS011;48440;51.224;22.506;2023-07-20T00:16:18;9.90;;;5.80;;
62401;SDS011;48440;51.224;22.506;2023-07-20T00:18:44;9.45;;;6.20;;
62401;SDS011;48440;51.224;22.506;2023-07-20T00:21:09;10.30;;;6.25;;
62401;SDS011;48440;51.224;22.506;2023-07-20T00:23:35;9.50;;;5.72;;
62401;SDS011;48440;51.224;22.506;2023-07-20T00:26:00;9.95;;;6.10;;
62401;SDS011;48440;51.224;22.506;2023-07-20T00:28:26;11.02;;;6.03;;
62401;SDS011;48440;51.224;22.506;2023-07-20T00:30:51;11.68;;;6.43;;
62401;SDS011;48440;51.224;22.506;2023-07-20T00:33:17;13.40;;;7.43;;
62401;SDS011;48440;51.224;22.506;2023-07-20T00:35:43;10.38;;;5.57;;
62401;SDS011;48440;51.224;22.506;2023-07-20T00:38:09;9.68;;;6.55;;
62401;SDS011;48440;51.224;22.506;2023-07-20T00:40:35;10.95;;;6.38;;
62401;SDS011;48440;51.224;22.506;2023-07-20T00:43:04;10.40;;;5.88;;
62401;SDS011;48440;51.224;22.506;2023-07-20T00:45:30;11.70;;;6.32;;
62401;SDS011;48440;51.224;22.506;2023-07-20T00:47:57;9.80;;;5.97;;
62401;SDS011;48440;51.224;22.506;2023-07-20T00:50:24;11.77;;;6.05;;
62401;SDS011;48440;51.224;22.506;2023-07-20T00:52:50;9.93;;;5.93;;
62401;SDS011;48440;51.224;22.506;2023-07-20T00:55:16;12.85;;;6.65;;
62401;SDS011;48440;51.224;22.506;2023-07-20T00:57:41;10.32;;;6.70;;
62401;SDS011;48440;51.224;22.506;2023-07-20T01:00:07;12.13;;;6.05;;
62401;SDS011;48440;51.224;22.506;2023-07-20T01:02:33;10.18;;;6.30;;
62401;SDS011;48440;51.224;22.506;2023-07-20T01:04:59;8.38;;;6.00;;
62401;SDS011;48440;51.224;22.506;2023-07-20T01:07:25;11.15;;;6.20;;
62401;SDS011;48440;51.224;22.506;2023-07-20T01:12:41;9.52;;;6.45;;
62401;SDS011;48440;51.224;22.506;2023-07-20T01:15:09;10.57;;;6.55;;
62401;SDS011;48440;51.224;22.506;2023-07-20T01:17:35;9.80;;;6.22;;
62401;SDS011;48440;51.224;22.506;2023-07-20T01:20:01;11.98;;;6.22;;
62401;SDS011;48440;51.224;22.506;2023-07-20T01:23:33;10.88;;;5.88;;
62401;SDS011;48440;51.224;22.506;2023-07-20T01:25:40;11.98;;;6.40;;
62401;SDS011;48440;51.224;22.506;2023-07-20T01:33:36;11.65;;;6.20;;
62401;SDS011;48440;51.224;22.506;2023-07-20T01:36:04;10.93;;;6.30;;
62401;SDS011;48440;51.224;22.506;2023-07-20T01:38:30;11.82;;;6.40;;
62401;SDS011;48440;51.224;22.506;2023-07-20T01:40:56;10.70;;;6.82;;
62401;SDS011;48440;51.224;22.506;2023-07-20T01:43:22;13.25;;;6.55;;
62401;SDS011;48440;51.224;22.506;2023-07-20T01:45:47;11.25;;;6.78;;
62401;SDS011;48440;51.224;22.506;2023-07-20T01:48:13;12.63;;;6.75;;
62401;SDS011;48440;51.224;22.506;2023-07-20T01:50:38;11.70;;;6.82;;
62401;SDS011;48440;51.224;22.506;2023-07-20T01:53:04;11.80;;;6.47;;
62401;SDS011;48440;51.224;22.506;2023-07-20T01:55:29;14.57;;;7.28;;
62401;SDS011;48440;51.224;22.506;2023-07-20T01:57:55;11.30;;;6.68;;
62401;SDS011;48440;51.224;22.506;2023-07-20T02:00:20;9.93;;;6.40;;
62401;SDS011;48440;51.224;22.506;2023-07-20T02:02:49;10.73;;;6.78;;
62401;SDS011;48440;51.224;22.506;2023-07-20T02:05:15;12.85;;;6.68;;
62401;SDS011;48440;51.224;22.506;2023-07-20T02:07:41;13.07;;;7.15;;
62401;SDS011;48440;51.224;22.506;2023-07-20T02:10:06;11.85;;;6.95;;
62401;SDS011;48440;51.224;22.506;2023-07-20T02:12:32;14.85;;;7.72;;
62401;SDS011;48440;51.224;22.506;2023-07-20T02:14:58;11.50;;;6.65;;
62401;SDS011;48440;51.224;22.506;2023-07-20T02:17:23;10.65;;;6.93;;
62401;SDS011;48440;51.224;22.506;2023-07-20T02:19:55;9.90;;;6.93;;
62401;SDS011;48440;51.224;22.506;2023-07-20T02:22:24;13.85;;;6.75;;
62401;SDS011;48440;51.224;22.506;2023-07-20T02:24:50;13.05;;;7.05;;
62401;SDS011;48440;51.224;22.506;2023-07-20T02:27:16;11.00;;;7.53;;
62401;SDS011;48440;51.224;22.506;2023-07-20T02:29:41;12.35;;;7.18;;
62401;SDS011;48440;51.224;22.506;2023-07-20T02:32:07;13.32;;;7.05;;
62401;SDS011;48440;51.224;22.506;2023-07-20T02:34:35;11.73;;;7.43;;
62401;SDS011;48440;51.224;22.506;2023-07-20T02:37:00;15.82;;;8.07;;
62401;SDS011;48440;51.224;22.506;2023-07-20T02:39:29;12.05;;;7.32;;
62401;SDS011;48440;51.224;22.506;2023-07-20T02:41:55;15.10;;;7.18;;
62401;SDS011;48440;51.224;22.506;2023-07-20T02:44:21;13.00;;;7.60;;
62401;SDS011;48440;51.224;22.506;2023-07-20T02:46:46;12.93;;;7.30;;
62401;SDS011;48440;51.224;22.506;2023-07-20T02:49:12;11.77;;;7.50;;
62401;SDS011;48440;51.224;22.506;2023-07-20T02:51:37;13.40;;;7.03;;
62401;SDS011;48440;51.224;22.506;2023-07-20T02:54:03;12.50;;;7.15;;
62401;SDS011;48440;51.224;22.506;2023-07-20T02:56:28;10.27;;;7.05;;
62401;SDS011;48440;51.224;22.506;2023-07-20T02:58:54;11.35;;;7.75;;
62401;SDS011;48440;51.224;22.506;2023-07-20T03:01:19;12.20;;;7.95;;
62401;SDS011;48440;51.224;22.506;2023-07-20T03:03:45;19.05;;;8.55;;
62401;SDS011;48440;51.224;22.506;2023-07-20T03:06:14;14.32;;;7.65;;
62401;SDS011;48440;51.224;22.506;2023-07-20T03:08:40;17.48;;;8.15;;
62401;SDS011;48440;51.224;22.506;2023-07-20T03:11:10;16.42;;;8.43;;
62401;SDS011;48440;51.224;22.506;2023-07-20T03:13:35;13.52;;;8.10;;
62401;SDS011;48440;51.224;22.506;2023-07-20T03:16:01;14.27;;;7.63;;
62401;SDS011;48440;51.224;22.506;2023-07-20T03:18:26;14.55;;;7.75;;
62401;SDS011;48440;51.224;22.506;2023-07-20T03:20:52;12.05;;;7.82;;
62401;SDS011;48440;51.224;22.506;2023-07-20T03:23:17;16.98;;;7.82;;
62401;SDS011;48440;51.224;22.506;2023-07-20T03:25:43;15.43;;;8.70;;
62401;SDS011;48440;51.224;22.506;2023-07-20T03:28:08;19.58;;;10.40;;
62401;SDS011;48440;51.224;22.506;2023-07-20T03:30:34;14.27;;;8.52;;
62401;SDS011;48440;51.224;22.506;2023-07-20T03:33:00;12.98;;;7.72;;
62401;SDS011;48440;51.224;22.506;2023-07-20T03:35:25;13.40;;;7.95;;
62401;SDS011;48440;51.224;22.506;2023-07-20T03:37:51;15.43;;;7.75;;
62401;SDS011;48440;51.224;22.506;2023-07-20T03:40:17;19.38;;;8.27;;
62401;SDS011;48440;51.224;22.506;2023-07-20T03:42:42;12.55;;;8.13;;
62401;SDS011;48440;51.224;22.506;2023-07-20T03:45:08;12.95;;;8.32;;
62401;SDS011;48440;51.224;22.506;2023-07-20T03:47:34;13.02;;;8.40;;
62401;SDS011;48440;51.224;22.506;2023-07-20T03:49:59;11.18;;;7.90;;
62401;SDS011;48440;51.224;22.506;2023-07-20T03:52:25;14.90;;;8.15;;
62401;SDS011;48440;51.224;22.506;2023-07-20T03:54:50;11.80;;;7.93;;
62401;SDS011;48440;51.224;22.506;2023-07-20T03:57:18;16.35;;;8.70;;
62401;SDS011;48440;51.224;22.506;2023-07-20T03:59:47;15.48;;;8.57;;
62401;SDS011;48440;51.224;22.506;2023-07-20T04:02:13;14.02;;;8.52;;
62401;SDS011;48440;51.224;22.506;2023-07-20T04:04:38;15.15;;;8.02;;
62401;SDS011;48440;51.224;22.506;2023-07-20T04:07:04;14.68;;;8.35;;
62401;SDS011;48440;51.224;22.506;2023-07-20T04:09:31;15.73;;;8.45;;
62401;SDS011;48440;51.224;22.506;2023-07-20T04:11:56;18.25;;;8.77;;
62401;SDS011;48440;51.224;22.506;2023-07-20T04:14:22;13.52;;;8.07;;
62401;SDS011;48440;51.224;22.506;2023-07-20T04:16:47;13.07;;;8.55;;
62401;SDS011;48440;51.224;22.506;2023-07-20T04:19:13;17.60;;;8.70;;
62401;SDS011;48440;51.224;22.506;2023-07-20T04:21:41;13.25;;;7.55;;
62401;SDS011;48440;51.224;22.506;2023-07-20T04:24:07;13.63;;;7.65;;
62401;SDS011;48440;51.224;22.506;2023-07-20T04:26:32;17.25;;;7.63;;
62401;SDS011;48440;51.224;22.506;2023-07-20T04:28:58;16.02;;;8.55;;
62401;SDS011;48440;51.224;22.506;2023-07-20T04:31:24;19.50;;;9.15;;
62401;SDS011;48440;51.224;22.506;2023-07-20T04:33:50;13.55;;;8.52;;
62401;SDS011;48440;51.224;22.506;2023-07-20T04:36:15;18.05;;;8.45;;
62401;SDS011;48440;51.224;22.506;2023-07-20T04:38:44;14.05;;;9.02;;
62401;SDS011;48440;51.224;22.506;2023-07-20T04:41:10;12.93;;;8.40;;
62401;SDS011;48440;51.224;22.506;2023-07-20T04:43:38;19.45;;;8.50;;
62401;SDS011;48440;51.224;22.506;2023-07-20T04:46:06;16.50;;;8.43;;
62401;SDS011;48440;51.224;22.506;2023-07-20T04:48:32;16.80;;;8.98;;
62401;SDS011;48440;51.224;22.506;2023-07-20T04:50:57;15.55;;;8.88;;
62401;SDS011;48440;51.224;22.506;2023-07-20T04:53:23;14.23;;;8.15;;
62401;SDS011;48440;51.224;22.506;2023-07-20T04:55:49;14.45;;;7.88;;
62401;SDS011;48440;51.224;22.506;2023-07-20T04:58:20;15.90;;;9.00;;
62401;SDS011;48440;51.224;22.506;2023-07-20T05:00:50;18.65;;;8.63;;
62401;SDS011;48440;51.224;22.506;2023-07-20T05:03:16;18.75;;;8.95;;
62401;SDS011;48440;51.224;22.506;2023-07-20T05:05:42;19.45;;;8.85;;
62401;SDS011;48440;51.224;22.506;2023-07-20T05:08:08;14.20;;;9.65;;
62401;SDS011;48440;51.224;22.506;2023-07-20T05:10:43;15.43;;;10.13;;
62401;SDS011;48440;51.224;22.506;2023-07-20T05:13:09;13.05;;;9.20;;
62401;SDS011;48440;51.224;22.506;2023-07-20T05:15:34;17.73;;;9.88;;
62401;SDS011;48440;51.224;22.506;2023-07-20T05:18:00;14.85;;;9.38;;
62401;SDS011;48440;51.224;22.506;2023-07-20T05:20:26;22.10;;;9.50;;
62401;SDS011;48440;51.224;22.506;2023-07-20T05:22:54;20.65;;;8.98;;
62401;SDS011;48440;51.224;22.506;2023-07-20T05:25:19;13.23;;;8.27;;
62401;SDS011;48440;51.224;22.506;2023-07-20T05:27:47;13.15;;;9.27;;
62401;SDS011;48440;51.224;22.506;2023-07-20T05:30:13;11.15;;;8.20;;
62401;SDS011;48440;51.224;22.506;2023-07-20T05:32:38;13.40;;;7.78;;
62401;SDS011;48440;51.224;22.506;2023-07-20T05:35:04;10.65;;;8.05;;
62401;SDS011;48440;51.224;22.506;2023-07-20T05:37:30;12.55;;;7.78;;
62401;SDS011;48440;51.224;22.506;2023-07-20T05:39:56;10.15;;;7.82;;
62401;SDS011;48440;51.224;22.506;2023-07-20T05:42:22;12.55;;;7.65;;
62401;SDS011;48440;51.224;22.506;2023-07-20T05:44:48;11.43;;;7.57;;
62401;SDS011;48440;51.224;22.506;2023-07-20T05:47:14;12.07;;;8.27;;
62401;SDS011;48440;51.224;22.506;2023-07-20T05:49:40;15.27;;;8.45;;
62401;SDS011;48440;51.224;22.506;2023-07-20T05:52:08;14.07;;;8.63;;
62401;SDS011;48440;51.224;22.506;2023-07-20T05:54:34;13.90;;;8.23;;
62401;SDS011;48440;51.224;22.506;2023-07-20T05:57:09;11.48;;;8.32;;
62401;SDS011;48440;51.224;22.506;2023-07-20T05:59:43;13.40;;;8.88;;
62401;SDS011;48440;51.224;22.506;2023-07-20T06:02:10;13.63;;;8.63;;
62401;SDS011;48440;51.224;22.506;2023-07-20T06:04:36;12.52;;;7.88;;
62401;SDS011;48440;51.224;22.506;2023-07-20T06:07:02;15.55;;;9.23;;
62401;SDS011;48440;51.224;22.506;2023-07-20T06:09:27;16.65;;;9.55;;
62401;SDS011;48440;51.224;22.506;2023-07-20T06:11:54;10.93;;;8.30;;
62401;SDS011;48440;51.224;22.506;2023-07-20T06:14:21;14.02;;;8.57;;
62401;SDS011;48440;51.224;22.506;2023-07-20T06:16:47;16.60;;;9.93;;
62401;SDS011;48440;51.224;22.506;2023-07-20T06:19:12;14.15;;;9.15;;
62401;SDS011;48440;51.224;22.506;2023-07-20T06:21:38;14.80;;;10.48;;
62401;SDS011;48440;51.224;22.506;2023-07-20T06:24:04;16.23;;;10.43;;
62401;SDS011;48440;51.224;22.506;2023-07-20T06:26:30;18.80;;;11.43;;
62401;SDS011;48440;51.224;22.506;2023-07-20T06:28:56;17.05;;;10.80;;
62401;SDS011;48440;51.224;22.506;2023-07-20T06:31:22;18.92;;;10.73;;
62401;SDS011;48440;51.224;22.506;2023-07-20T06:33:47;15.68;;;10.38;;
62401;SDS011;48440;51.224;22.506;2023-07-20T06:36:13;13.55;;;8.77;;
62401;SDS011;48440;51.224;22.506;2023-07-20T06:38:41;13.23;;;9.00;;
62401;SDS011;48440;51.224;22.506;2023-07-20T06:41:06;13.00;;;8.23;;
62401;SDS011;48440;51.224;22.506;2023-07-20T06:43:32;12.35;;;6.93;;
62401;SDS011;48440;51.224;22.506;2023-07-20T06:45:57;12.48;;;6.53;;
62401;SDS011;48440;51.224;22.506;2023-07-20T06:48:23;12.68;;;6.72;;
62401;SDS011;48440;51.224;22.506;2023-07-20T06:50:48;12.05;;;6.22;;
62401;SDS011;48440;51.224;22.506;2023-07-20T06:53:14;10.85;;;5.97;;
62401;SDS011;48440;51.224;22.506;2023-07-20T06:55:41;8.50;;;5.28;;
62401;SDS011;48440;51.224;22.506;2023-07-20T06:58:07;7.68;;;4.80;;
62401;SDS011;48440;51.224;22.506;2023-07-20T07:00:33;6.18;;;4.38;;
62401;SDS011;48440;51.224;22.506;2023-07-20T07:02:58;8.70;;;4.22;;
62401;SDS011;48440;51.224;22.506;2023-07-20T07:05:24;7.82;;;4.25;;
62401;SDS011;48440;51.224;22.506;2023-07-20T07:07:49;8.13;;;4.90;;
62401;SDS011;48440;51.224;22.506;2023-07-20T07:10:15;8.55;;;4.10;;
62401;SDS011;48440;51.224;22.506;2023-07-20T07:12:41;8.50;;;4.45;;
62401;SDS011;48440;51.224;22.506;2023-07-20T07:15:06;6.82;;;3.85;;
62401;SDS011;48440;51.224;22.506;2023-07-20T07:17:32;7.93;;;4.18;;
62401;SDS011;48440;51.224;22.506;2023-07-20T07:19:58;8.13;;;4.50;;
62401;SDS011;48440;51.224;22.506;2023-07-20T07:22:23;6.50;;;4.13;;
62401;SDS011;48440;51.224;22.506;2023-07-20T07:24:50;6.38;;;3.70;;
62401;SDS011;48440;51.224;22.506;2023-07-20T07:41:16;6.68;;;4.13;;
62401;SDS011;48440;51.224;22.506;2023-07-20T07:43:42;8.30;;;3.97;;
62401;SDS011;48440;51.224;22.506;2023-07-20T07:46:10;5.85;;;4.03;;
62401;SDS011;48440;51.224;22.506;2023-07-20T07:48:36;7.05;;;4.30;;
62401;SDS011;48440;51.224;22.506;2023-07-20T07:51:01;11.88;;;4.30;;
62401;SDS011;48440;51.224;22.506;2023-07-20T07:53:27;6.70;;;4.18;;
62401;SDS011;48440;51.224;22.506;2023-07-20T07:55:53;9.98;;;4.90;;
62401;SDS011;48440;51.224;22.506;2023-07-20T07:58:18;6.80;;;4.18;;
62401;SDS011;48440;51.224;22.506;2023-07-20T08:00:44;6.63;;;4.55;;
62401;SDS011;48440;51.224;22.506;2023-07-20T08:03:09;7.15;;;4.80;;
62401;SDS011;48440;51.224;22.506;2023-07-20T08:05:35;6.50;;;4.05;;
62401;SDS011;48440;51.224;22.506;2023-07-20T08:08:02;8.27;;;4.95;;
62401;SDS011;48440;51.224;22.506;2023-07-20T08:10:32;6.82;;;4.35;;
62401;SDS011;48440;51.224;22.506;2023-07-20T08:12:58;6.68;;;4.93;;
62401;SDS011;48440;51.224;22.506;2023-07-20T08:15:27;5.50;;;4.07;;
62401;SDS011;48440;51.224;22.506;2023-07-20T08:23:04;6.45;;;4.22;;
62401;SDS011;48440;51.224;22.506;2023-07-20T08:28:05;7.45;;;4.25;;
62401;SDS011;48440;51.224;22.506;2023-07-20T08:30:40;8.98;;;4.28;;
62401;SDS011;48440;51.224;22.506;2023-07-20T08:33:10;6.28;;;4.45;;
62401;SDS011;48440;51.224;22.506;2023-07-20T08:35:52;6.63;;;4.55;;
62401;SDS011;48440;51.224;22.506;2023-07-20T08:38:18;6.43;;;4.28;;
62401;SDS011;48440;51.224;22.506;2023-07-20T08:54:33;7.78;;;3.95;;
62401;SDS011;48440;51.224;22.506;2023-07-20T08:59:56;6.78;;;4.55;;
62401;SDS011;48440;51.224;22.506;2023-07-20T09:02:22;7.70;;;4.53;;
62401;SDS011;48440;51.224;22.506;2023-07-20T09:04:51;8.57;;;4.15;;
62401;SDS011;48440;51.224;22.506;2023-07-20T09:07:17;5.65;;;3.97;;
62401;SDS011;48440;51.224;22.506;2023-07-20T09:09:45;6.88;;;3.65;;
62401;SDS011;48440;51.224;22.506;2023-07-20T09:12:16;5.95;;;3.53;;
62401;SDS011;48440;51.224;22.506;2023-07-20T09:14:45;6.05;;;3.97;;
62401;SDS011;48440;51.224;22.506;2023-07-20T09:17:13;6.15;;;3.33;;
62401;SDS011;48440;51.224;22.506;2023-07-20T09:19:49;5.40;;;3.47;;
62401;SDS011;48440;51.224;22.506;2023-07-20T09:22:15;4.88;;;3.17;;
62401;SDS011;48440;51.224;22.506;2023-07-20T09:24:40;5.68;;;2.95;;
62401;SDS011;48440;51.224;22.506;2023-07-20T09:27:06;4.47;;;3.20;;
62401;SDS011;48440;51.224;22.506;2023-07-20T09:29:32;6.78;;;3.05;;
62401;SDS011;48440;51.224;22.506;2023-07-20T09:32:01;5.32;;;2.92;;
62401;SDS011;48440;51.224;22.506;2023-07-20T09:34:31;4.45;;;2.90;;
62401;SDS011;48440;51.224;22.506;2023-07-20T09:36:58;6.47;;;3.40;;
62401;SDS011;48440;51.224;22.506;2023-07-20T09:39:24;5.93;;;3.10;;
62401;SDS011;48440;51.224;22.506;2023-07-20T09:41:50;3.92;;;3.05;;
62401;SDS011;48440;51.224;22.506;2023-07-20T09:44:16;6.18;;;3.13;;
62401;SDS011;48440;51.224;22.506;2023-07-20T09:46:45;5.93;;;3.58;;
62401;SDS011;48440;51.224;22.506;2023-07-20T09:49:15;6.25;;;3.13;;
62401;SDS011;48440;51.224;22.506;2023-07-20T09:51:42;4.22;;;3.05;;
62401;SDS011;48440;51.224;22.506;2023-07-20T09:54:09;6.57;;;3.50;;
62401;SDS011;48440;51.224;22.506;2023-07-20T09:56:36;5.05;;;3.08;;
62401;SDS011;48440;51.224;22.506;2023-07-20T09:59:03;6.00;;;2.90;;
62401;SDS011;48440;51.224;22.506;2023-07-20T10:01:29;4.13;;;2.90;;
62401;SDS011;48440;51.224;22.506;2023-07-20T10:03:56;5.28;;;3.00;;
62401;SDS011;48440;51.224;22.506;2023-07-20T10:06:26;4.78;;;2.53;;
62401;SDS011;48440;51.224;22.506;2023-07-20T10:08:55;5.65;;;2.80;;
62401;SDS011;48440;51.224;22.506;2023-07-20T10:11:26;4.47;;;3.10;;
62401;SDS011;48440;51.224;22.506;2023-07-20T10:13:55;5.28;;;3.00;;
62401;SDS011;48440;51.224;22.506;2023-07-20T10:16:26;4.13;;;2.60;;
62401;SDS011;48440;51.224;22.506;2023-07-20T10:21:42;4.15;;;2.80;;
62401;SDS011;48440;51.224;22.506;2023-07-20T10:24:13;6.32;;;2.40;;
62401;SDS011;48440;51.224;22.506;2023-07-20T10:26:39;3.30;;;2.50;;
62401;SDS011;48440;51.224;22.506;2023-07-20T10:29:05;4.95;;;2.83;;
62401;SDS011;48440;51.224;22.506;2023-07-20T10:31:31;2.75;;;2.35;;
62401;SDS011;48440;51.224;22.506;2023-07-20T10:33:57;4.93;;;2.50;;
62401;SDS011;48440;51.224;22.506;2023-07-20T10:36:27;3.50;;;2.65;;
62401;SDS011;48440;51.224;22.506;2023-07-20T10:38:56;3.15;;;2.53;;
62401;SDS011;48440;51.224;22.506;2023-07-20T10:41:27;3.65;;;2.22;;
62401;SDS011;48440;51.224;22.506;2023-07-20T10:44:04;5.80;;;2.60;;
62401;SDS011;48440;51.224;22.506;2023-07-20T10:49:03;3.45;;;2.47;;
62401;SDS011;48440;51.224;22.506;2023-07-20T10:51:45;3.22;;;2.40;;
62401;SDS011;48440;51.224;22.506;2023-07-20T10:56:41;5.40;;;3.25;;
62401;SDS011;48440;51.224;22.506;2023-07-20T10:59:20;4.10;;;3.35;;
62401;SDS011;48440;51.224;22.506;2023-07-20T11:02:07;7.97;;;3.03;;
62401;SDS011;48440;51.224;22.506;2023-07-20T11:04:43;4.25;;;2.85;;
62401;SDS011;48440;51.224;22.506;2023-07-20T11:10:14;4.68;;;2.88;;
62401;SDS011;48440;51.224;22.506;2023-07-20T11:12:40;6.20;;;2.97;;
62401;SDS011;48440;51.224;22.506;2023-07-20T11:15:06;4.13;;;2.97;;
62401;SDS011;48440;51.224;22.506;2023-07-20T11:20:07;4.07;;;2.92;;
62401;SDS011;48440;51.224;22.506;2023-07-20T11:22:41;4.72;;;3.22;;
62401;SDS011;48440;51.224;22.506;2023-07-20T11:25:21;5.97;;;2.80;;
62401;SDS011;48440;51.224;22.506;2023-07-20T11:28:17;3.28;;;2.72;;
62401;SDS011;48440;51.224;22.506;2023-07-20T11:31:03;4.30;;;2.30;;
62401;SDS011;48440;51.224;22.506;2023-07-20T11:33:39;2.78;;;2.47;;
62401;SDS011;48440;51.224;22.506;2023-07-20T11:36:06;5.68;;;2.80;;
62401;SDS011;48440;51.224;22.506;2023-07-20T11:38:38;5.20;;;3.00;;
62401;SDS011;48440;51.224;22.506;2023-07-20T11:46:18;3.50;;;2.63;;
62401;SDS011;48440;51.224;22.506;2023-07-20T11:48:47;4.28;;;3.22;;
62401;SDS011;48440;51.224;22.506;2023-07-20T11:51:31;10.98;;;7.32;;
62401;SDS011;48440;51.224;22.506;2023-07-20T11:54:17;9.75;;;5.03;;
62401;SDS011;48440;51.224;22.506;2023-07-20T11:56:43;8.05;;;4.50;;
62401;SDS011;48440;51.224;22.506;2023-07-20T11:59:09;6.25;;;3.70;;
62401;SDS011;48440;51.224;22.506;2023-07-20T12:01:38;5.43;;;3.83;;
62401;SDS011;48440;51.224;22.506;2023-07-20T12:04:04;12.10;;;7.05;;
62401;SDS011;48440;51.224;22.506;2023-07-20T12:06:32;13.80;;;8.63;;
62401;SDS011;48440;51.224;22.506;2023-07-20T12:08:58;9.57;;;5.63;;
62401;SDS011;48440;51.224;22.506;2023-07-20T12:11:31;8.98;;;5.70;;
62401;SDS011;48440;51.224;22.506;2023-07-20T12:14:03;9.55;;;4.53;;
62401;SDS011;48440;51.224;22.506;2023-07-20T12:16:33;5.80;;;3.90;;
62401;SDS011;48440;51.224;22.506;2023-07-20T12:19:07;5.82;;;3.72;;
62401;SDS011;48440;51.224;22.506;2023-07-20T12:21:43;5.07;;;3.65;;
62401;SDS011;48440;51.224;22.506;2023-07-20T12:24:26;5.97;;;4.40;;
62401;SDS011;48440;51.224;22.506;2023-07-20T12:26:56;7.90;;;5.20;;
62401;SDS011;48440;51.224;22.506;2023-07-20T12:29:38;9.18;;;4.80;;
62401;SDS011;48440;51.224;22.506;2023-07-20T12:32:07;8.70;;;4.50;;
62401;SDS011;48440;51.224;22.506;2023-07-20T12:34:43;7.90;;;5.13;;
62401;SDS011;48440;51.224;22.506;2023-07-20T12:43:15;6.83;;;4.57;;
62401;SDS011;48440;51.224;22.506;2023-07-20T12:48:23;6.85;;;4.90;;
62401;SDS011;48440;51.224;22.506;2023-07-20T12:51:06;5.82;;;4.32;;
62401;SDS011;48440;51.224;22.506;2023-07-20T12:53:31;6.35;;;4.05;;
62401;SDS011;48440;51.224;22.506;2023-07-20T12:56:01;5.38;;;4.35;;
62401;SDS011;48440;51.224;22.506;2023-07-20T12:58:27;5.40;;;4.05;;
62401;SDS011;48440;51.224;22.506;2023-07-20T13:00:53;6.35;;;4.03;;
62401;SDS011;48440;51.224;22.506;2023-07-20T13:03:19;7.90;;;3.70;;
62401;SDS011;48440;51.224;22.506;2023-07-20T13:05:46;4.97;;;3.47;;
62401;SDS011;48440;51.224;22.506;2023-07-20T13:08:19;4.30;;;3.35;;
62401;SDS011;48440;51.224;22.506;2023-07-20T13:10:56;5.50;;;3.40;;
62401;SDS011;48440;51.224;22.506;2023-07-20T13:13:31;4.43;;;3.22;;
62401;SDS011;48440;51.224;22.506;2023-07-20T13:16:07;4.18;;;3.05;;
62401;SDS011;48440;51.224;22.506;2023-07-20T13:18:40;6.50;;;3.38;;
62401;SDS011;48440;51.224;22.506;2023-07-20T13:21:12;6.88;;;4.00;;
62401;SDS011;48440;51.224;22.506;2023-07-20T13:23:51;5.63;;;3.55;;
62401;SDS011;48440;51.224;22.506;2023-07-20T13:26:31;7.07;;;4.60;;
62401;SDS011;48440;51.224;22.506;2023-07-20T13:28:57;6.10;;;3.88;;
62401;SDS011;48440;51.224;22.506;2023-07-20T13:31:24;7.07;;;5.32;;
62401;SDS011;48440;51.224;22.506;2023-07-20T13:33:57;7.32;;;5.10;;
62401;SDS011;48440;51.224;22.506;2023-07-20T13:36:26;5.63;;;4.28;;
62401;SDS011;48440;51.224;22.506;2023-07-20T13:38:55;3.97;;;3.50;;
62401;SDS011;48440;51.224;22.506;2023-07-20T13:41:31;5.15;;;3.65;;
62401;SDS011;48440;51.224;22.506;2023-07-20T13:44:00;5.53;;;3.50;;
62401;SDS011;48440;51.224;22.506;2023-07-20T13:46:30;5.00;;;3.25;;
62401;SDS011;48440;51.224;22.506;2023-07-20T13:49:07;5.85;;;3.08;;
62401;SDS011;48440;51.224;22.506;2023-07-20T13:51:35;6.97;;;4.18;;
62401;SDS011;48440;51.224;22.506;2023-07-20T13:54:05;3.95;;;3.53;;
62401;SDS011;48440;51.224;22.506;2023-07-20T13:56:39;5.40;;;3.50;;
62401;SDS011;48440;51.224;22.506;2023-07-20T13:59:12;4.00;;;3.60;;
62401;SDS011;48440;51.224;22.506;2023-07-20T14:04:22;5.78;;;3.63;;
62401;SDS011;48440;51.224;22.506;2023-07-20T14:06:47;4.57;;;3.55;;
62401;SDS011;48440;51.224;22.506;2023-07-20T14:09:16;4.53;;;3.50;;
62401;SDS011;48440;51.224;22.506;2023-07-20T14:11:41;4.13;;;3.60;;
62401;SDS011;48440;51.224;22.506;2023-07-20T14:14:07;4.30;;;3.40;;
62401;SDS011;48440;51.224;22.506;2023-07-20T14:16:32;3.63;;;3.08;;
62401;SDS011;48440;51.224;22.506;2023-07-20T14:18:58;5.38;;;3.92;;
62401;SDS011;48440;51.224;22.506;2023-07-20T14:21:24;4.82;;;3.70;;
62401;SDS011;48440;51.224;22.506;2023-07-20T14:23:53;5.43;;;3.25;;
62401;SDS011;48440;51.224;22.506;2023-07-20T14:26:19;6.95;;;3.65;;
62401;SDS011;48440;51.224;22.506;2023-07-20T14:28:46;4.80;;;3.00;;
62401;SDS011;48440;51.224;22.506;2023-07-20T14:31:13;5.57;;;2.90;;
62401;SDS011;48440;51.224;22.506;2023-07-20T14:33:39;4.65;;;3.15;;
62401;SDS011;48440;51.224;22.506;2023-07-20T14:36:04;4.38;;;3.28;;
62401;SDS011;48440;51.224;22.506;2023-07-20T14:38:38;5.15;;;3.80;;
62401;SDS011;48440;51.224;22.506;2023-07-20T14:41:17;6.40;;;3.55;;
62401;SDS011;48440;51.224;22.506;2023-07-20T14:43:49;4.90;;;3.65;;
62401;SDS011;48440;51.224;22.506;2023-07-20T14:46:15;4.78;;;3.47;;
62401;SDS011;48440;51.224;22.506;2023-07-20T14:48:41;5.68;;;3.97;;
62401;SDS011;48440;51.224;22.506;2023-07-20T14:51:07;3.92;;;3.53;;
62401;SDS011;48440;51.224;22.506;2023-07-20T14:53:47;3.95;;;3.35;;
62401;SDS011;48440;51.224;22.506;2023-07-20T14:56:15;4.90;;;4.05;;
62401;SDS011;48440;51.224;22.506;2023-07-20T14:58:46;6.20;;;5.60;;
62401;SDS011;48440;51.224;22.506;2023-07-20T15:01:24;5.97;;;5.07;;
62401;SDS011;48440;51.224;22.506;2023-07-20T15:11:26;5.60;;;4.70;;
62401;SDS011;48440;51.224;22.506;2023-07-20T15:13:51;8.15;;;5.03;;
62401;SDS011;48440;51.224;22.506;2023-07-20T15:16:18;5.60;;;4.80;;
62401;SDS011;48440;51.224;22.506;2023-07-20T15:18:49;6.22;;;4.60;;
62401;SDS011;48440;51.224;22.506;2023-07-20T15:21:41;8.35;;;4.93;;
62401;SDS011;48440;51.224;22.506;2023-07-20T15:25:03;5.30;;;4.80;;
62401;SDS011;48440;51.224;22.506;2023-07-20T15:40:08;5.93;;;4.63;;
62401;SDS011;48440;51.224;22.506;2023-07-20T15:45:40;7.65;;;5.55;;
62401;SDS011;48440;51.224;22.506;2023-07-20T15:48:06;7.72;;;5.68;;
62401;SDS011;48440;51.224;22.506;2023-07-20T16:03:27;8.25;;;7.32;;
62401;SDS011;48440;51.224;22.506;2023-07-20T16:05:53;14.05;;;8.50;;
62401;SDS011;48440;51.224;22.506;2023-07-20T16:08:30;11.85;;;7.45;;
62401;SDS011;48440;51.224;22.506;2023-07-20T16:11:02;9.50;;;6.72;;
62401;SDS011;48440;51.224;22.506;2023-07-20T16:13:31;9.88;;;6.68;;
62401;SDS011;48440;51.224;22.506;2023-07-20T16:15:57;8.43;;;6.90;;
62401;SDS011;48440;51.224;22.506;2023-07-20T16:18:27;9.20;;;6.47;;
62401;SDS011;48440;51.224;22.506;2023-07-20T16:20:57;9.35;;;6.38;;
62401;SDS011;48440;51.224;22.506;2023-07-20T16:23:23;8.57;;;5.55;;
62401;SDS011;48440;51.224;22.506;2023-07-20T16:25:49;8.25;;;5.60;;
62401;SDS011;48440;51.224;22.506;2023-07-20T16:28:15;10.23;;;5.82;;